Time;durP1;ratioP1;P1;durP2;ratioP2;P2;SDS_P1;SDS_P2;PMS_P1;PMS_P2;Temp;Humidity;BMP_temperature;BMP_pressure;BME280_temperature;BME280_humidity;BME280_pressure;Samples;Min_cycle;Max_cycle;Signal;HPM_P1;HPM_P2
2024/04/01 00:01:01;;;;;;;24.83;4.82;;;;;;;12.96;53.74;94752.06;5137585;27;20091;-67
2024/04/01 00:03:27;;;;;;;14.98;3.13;;;;;;;13.02;54.20;94799.41;5155914;27;20019;-67
2024/04/01 00:05:56;;;;;;;12.77;3.63;;;;;;;12.97;52.74;94714.59;5156313;27;20573;-67
2024/04/01 00:08:22;;;;;;;12.35;3.88;;;;;;;13.16;53.08;94786.72;5120268;27;20484;-67
2024/04/01 00:10:48;;;;;;;18.65;4.28;;;;;;;13.37;52.57;94788.31;5120439;27;20060;-67
2024/04/01 00:13:17;;;;;;;11.13;3.40;;;;;;;13.28;53.38;94803.03;5137454;27;20050;-67
2024/04/01 00:15:42;;;;;;;16.88;3.00;;;;;;;13.28;52.67;94765.69;5120639;27;20042;-67
2024/04/01 00:18:08;;;;;;;10.52;2.90;;;;;;;13.22;54.54;94753.22;5137686;27;20031;-67
2024/04/01 00:20:33;;;;;;;15.30;2.83;;;;;;;13.17;54.08;94792.75;5120122;27;20460;-67
2024/04/01 00:22:59;;;;;;;17.88;3.72;;;;;;;13.29;54.15;94812.53;5137240;27;20030;-67
2024/04/01 00:25:25;;;;;;;11.25;2.55;;;;;;;13.04;53.86;94755.75;5137308;27;20510;-67
2024/04/01 00:27:51;;;;;;;8.43;2.55;;;;;;;12.84;54.45;94776.69;5137575;27;20018;-67
2024/04/01 00:30:17;;;;;;;11.75;2.80;;;;;;;13.03;54.16;94780.19;5119958;27;20458;-67
2024/04/01 00:32:42;;;;;;;19.30;3.10;;;;;;;12.91;54.23;94751.69;5119965;27;20026;-67
2024/04/01 00:35:09;;;;;;;17.67;2.95;;;;;;;13.13;54.43;94784.41;5136707;27;20018;-67
2024/04/01 00:37:35;;;;;;;10.43;2.80;;;;;;;12.96;54.22;94762.50;5137163;27;20071;-67
2024/04/01 00:40:00;;;;;;;15.02;2.67;;;;;;;12.66;55.45;94775.75;5116287;27;20038;-67
2024/04/01 00:42:26;;;;;;;11.70;2.40;;;;;;;12.89;54.92;94774.44;5134612;27;20035;-67
2024/04/01 00:44:51;;;;;;;20.52;4.30;;;;;;;12.85;54.56;94770.50;5116141;27;20030;-67
2024/04/01 00:47:16;;;;;;;15.63;3.38;;;;;;;12.48;56.56;94773.03;5133541;27;20034;-67
2024/04/01 00:49:42;;;;;;;13.55;3.10;;;;;;;12.84;55.75;94776.69;5098998;27;20027;-67
2024/04/01 00:52:07;;;;;;;15.45;3.15;;;;;;;12.82;55.72;94783.81;5134036;27;20089;-67
2024/04/01 00:54:33;;;;;;;21.45;3.00;;;;;;;12.75;55.44;94774.91;5116184;27;20116;-67
2024/04/01 00:56:58;;;;;;;14.43;2.50;;;;;;;12.56;55.39;94777.56;5133277;27;20035;-68
2024/04/01 00:59:24;;;;;;;13.93;2.65;;;;;;;12.34;56.97;94776.91;5116050;27;20031;-67
2024/04/01 01:01:49;;;;;;;11.63;2.40;;;;;;;12.48;56.38;94781.69;5115864;27;20031;-67
2024/04/01 01:04:15;;;;;;;16.05;2.60;;;;;;;12.27;57.04;94792.25;5116050;27;20027;-67
2024/04/01 01:06:41;;;;;;;10.40;2.90;;;;;;;12.29;57.23;94782.53;5132318;27;20031;-67
2024/04/01 01:09:06;;;;;;;13.95;3.50;;;;;;;12.31;57.32;94790.19;5116144;27;20054;-67
2024/04/01 01:11:32;;;;;;;14.45;2.45;;;;;;;12.43;58.08;94778.69;5132773;27;20028;-67
2024/04/01 01:13:57;;;;;;;13.43;3.30;;;;;;;12.46;58.58;94783.63;5132866;27;20558;-67
2024/04/01 01:16:23;;;;;;;13.23;2.78;;;;;;;12.40;58.47;94773.75;5134147;27;20034;-67
2024/04/01 01:18:48;;;;;;;14.00;3.08;;;;;;;12.19;57.42;94770.47;5132639;27;20035;-67
2024/04/01 01:21:13;;;;;;;14.73;3.33;;;;;;;12.04;57.87;94783.91;5115609;27;20043;-67
2024/04/01 01:23:39;;;;;;;14.02;2.60;;;;;;;12.39;58.58;94779.91;5133887;27;20522;-68
2024/04/01 01:26:04;;;;;;;15.40;3.00;;;;;;;12.12;58.62;94782.38;5133558;27;20038;-67
2024/04/01 01:28:30;;;;;;;9.90;2.42;;;;;;;12.17;58.70;94764.56;5132515;27;20027;-67
2024/04/01 01:30:55;;;;;;;13.60;2.50;;;;;;;11.73;58.78;94751.09;5115566;27;20087;-67
2024/04/01 01:33:20;;;;;;;9.95;2.33;;;;;;;11.81;59.95;94791.13;5132223;27;20031;-67
2024/04/01 01:35:46;;;;;;;7.28;2.35;;;;;;;12.05;59.57;94772.53;5115241;27;20035;-67
2024/04/01 01:38:13;;;;;;;13.38;2.50;;;;;;;12.12;59.70;94775.41;5133370;27;20038;-67
2024/04/01 01:40:39;;;;;;;12.48;2.85;;;;;;;11.96;59.16;94765.53;5132538;27;20084;-67
2024/04/01 01:43:04;;;;;;;12.50;2.45;;;;;;;11.68;59.58;94741.13;5132202;27;20409;-67
2024/04/01 01:45:29;;;;;;;12.43;2.13;;;;;;;11.72;60.42;94759.88;5133794;27;20039;-67
2024/04/01 01:47:55;;;;;;;11.15;2.20;;;;;;;11.94;60.41;94751.84;5132021;27;20053;-67
2024/04/01 01:50:20;;;;;;;11.60;2.58;;;;;;;12.04;60.37;94752.66;5133438;27;20562;-67
2024/04/01 01:52:46;;;;;;;14.60;2.40;;;;;;;11.88;60.77;94748.97;5122519;27;20561;-67
2024/04/01 01:55:11;;;;;;;10.77;2.60;;;;;;;11.72;61.43;94758.09;5111387;28;20024;-67
2024/04/01 01:57:37;;;;;;;11.82;3.10;;;;;;;11.94;61.58;94761.44;5112427;28;20050;-67
2024/04/01 02:00:05;;;;;;;13.75;2.53;;;;;;;11.92;60.67;94748.53;5112721;28;20475;-67
2024/04/01 02:02:31;;;;;;;15.32;3.10;;;;;;;11.52;61.00;94746.84;5111060;28;20077;-67
2024/04/01 02:04:57;;;;;;;9.55;2.40;;;;;;;11.72;61.11;94747.69;5077449;28;20028;-67
2024/04/01 02:07:22;;;;;;;12.02;2.95;;;;;;;11.73;61.43;94743.28;5111050;28;20035;-67
2024/04/01 02:09:47;;;;;;;11.85;2.47;;;;;;;11.72;61.16;94749.47;5111253;28;20023;-67
2024/04/01 02:12:13;;;;;;;12.48;2.70;;;;;;;11.52;62.27;94746.00;5112944;28;20023;-67
2024/04/01 02:14:39;;;;;;;10.30;2.63;;;;;;;11.84;61.81;94743.19;5112160;28;20024;-67
2024/04/01 02:17:05;;;;;;;13.65;2.95;;;;;;;11.67;60.53;94738.63;5094218;28;20039;-67
2024/04/01 02:19:31;;;;;;;11.45;2.45;;;;;;;11.55;61.37;94743.97;5111064;28;20092;-67
2024/04/01 02:21:56;;;;;;;12.15;2.20;;;;;;;11.50;61.36;94732.31;5112574;28;20463;-67
2024/04/01 02:24:22;;;;;;;9.43;2.20;;;;;;;11.20;62.25;94744.44;5112037;28;20148;-67
2024/04/01 02:26:47;;;;;;;14.38;2.90;;;;;;;11.62;63.23;94757.28;5094001;28;20482;-67
2024/04/01 02:29:13;;;;;;;9.43;1.90;;;;;;;11.65;63.38;94750.97;5111898;28;20073;-67
2024/04/01 02:31:39;;;;;;;15.30;2.40;;;;;;;11.25;62.39;94744.03;5112458;28;20027;-66
2024/04/01 02:34:04;;;;;;;14.52;3.00;;;;;;;11.40;62.79;94760.91;5110656;28;20031;-67
2024/04/01 02:36:29;;;;;;;11.20;2.40;;;;;;;11.14;62.54;94732.78;5110759;28;20465;-67
2024/04/01 02:38:55;;;;;;;9.02;2.42;;;;;;;11.05;63.31;94751.75;5115098;27;20039;-67
2024/04/01 02:41:20;;;;;;;14.65;2.55;;;;;;;11.34;63.94;94751.06;5114270;27;20546;-67
2024/04/01 02:43:46;;;;;;;6.63;2.10;;;;;;;11.33;63.76;94762.38;5096666;27;20024;-67
2024/04/01 02:46:12;;;;;;;13.13;2.53;;;;;;;11.26;63.70;94756.91;5114200;27;20058;-67
2024/04/01 02:48:37;;;;;;;9.60;2.40;;;;;;;11.26;64.49;94761.28;5113688;27;20481;-67
2024/04/01 02:51:03;;;;;;;9.95;2.50;;;;;;;11.29;65.03;94776.63;5132509;27;20034;-67
2024/04/01 02:53:29;;;;;;;11.27;2.30;;;;;;;11.19;63.92;94761.78;5132172;27;20035;-67
2024/04/01 02:55:54;;;;;;;11.32;2.63;;;;;;;11.15;64.29;94767.41;5130769;27;20473;-67
2024/04/01 02:58:20;;;;;;;13.27;2.38;;;;;;;11.29;64.24;94777.44;5132057;27;20031;-67
2024/04/01 03:00:45;;;;;;;7.72;2.92;;;;;;;11.28;63.93;94773.22;5130878;27;20042;-67
2024/04/01 03:03:14;;;;;;;10.73;3.50;;;;;;;11.00;63.69;94761.72;5113939;27;20019;-67
2024/04/01 03:05:39;;;;;;;7.13;2.38;;;;;;;10.91;64.25;94760.75;5130895;27;20031;-66
2024/04/01 03:08:09;;;;;;;17.73;2.65;;;;;;;11.03;64.05;94771.88;5131968;27;20023;-67
2024/04/01 03:10:34;;;;;;;13.95;2.30;;;;;;;11.07;62.73;94751.66;5130507;27;20031;-67
2024/04/01 03:13:03;;;;;;;14.95;2.25;;;;;;;11.17;60.67;94758.53;5130676;27;20033;-67
2024/04/01 03:15:29;;;;;;;11.57;2.63;;;;;;;11.34;61.21;94771.84;5130074;27;20222;-67
2024/04/01 03:17:54;;;;;;;10.90;2.88;;;;;;;11.41;61.40;94765.16;5130647;27;20035;-67
2024/04/01 03:20:20;;;;;;;9.73;2.33;;;;;;;11.49;62.36;94765.31;5130359;27;20024;-67
2024/04/01 03:22:45;;;;;;;8.93;2.35;;;;;;;11.47;63.08;94766.41;5130521;27;20425;-67
2024/04/01 03:25:10;;;;;;;9.00;2.67;;;;;;;11.41;61.99;94767.75;5130362;27;20501;-67
2024/04/01 03:27:36;;;;;;;9.60;2.45;;;;;;;11.26;62.68;94776.91;5131656;27;20065;-67
2024/04/01 03:30:01;;;;;;;9.38;2.13;;;;;;;11.52;62.63;94772.03;5130339;28;20486;-67
2024/04/01 03:32:27;;;;;;;6.43;2.20;;;;;;;11.35;62.00;94753.50;5131636;27;20043;-67
2024/04/01 03:34:53;;;;;;;7.20;2.15;;;;;;;11.20;62.74;94778.25;5113471;28;20076;-67
2024/04/01 03:37:18;;;;;;;10.10;2.20;;;;;;;11.17;61.97;94747.28;5109611;28;20356;-68
2024/04/01 03:39:44;;;;;;;10.40;2.20;;;;;;;11.42;62.92;94766.78;5122650;28;20047;-67
2024/04/01 03:42:11;;;;;;;9.02;1.60;;;;;;;11.09;62.40;94757.53;5113798;27;20038;-67
2024/04/01 03:44:36;;;;;;;12.13;2.42;;;;;;;11.20;62.46;94765.25;5133891;27;20030;-67
2024/04/01 03:47:02;;;;;;;10.30;2.22;;;;;;;11.32;62.72;94750.34;5113080;28;20413;-67
2024/04/01 03:49:27;;;;;;;9.25;2.47;;;;;;;11.50;62.77;94753.94;5131824;28;20027;-67
2024/04/01 03:51:52;;;;;;;10.77;2.50;;;;;;;11.24;62.87;94758.00;5144074;27;20079;-67
2024/04/01 03:54:18;;;;;;;8.35;1.92;;;;;;;11.03;60.98;94730.31;5133859;27;20408;-67
2024/04/01 03:56:43;;;;;;;9.20;2.10;;;;;;;11.43;58.91;94763.25;5151691;27;20038;-67
2024/04/01 03:59:09;;;;;;;12.00;2.15;;;;;;;11.48;59.75;94781.88;5133702;27;20034;-67
2024/04/01 04:01:34;;;;;;;10.95;2.92;;;;;;;11.59;61.48;94778.34;5133746;27;20035;-67
2024/04/01 04:03:59;;;;;;;8.45;2.25;;;;;;;11.45;60.90;94753.53;5133615;27;20044;-66
2024/04/01 04:06:26;;;;;;;9.32;2.13;;;;;;;11.52;61.56;94772.84;5133398;27;20023;-67
2024/04/01 04:08:51;;;;;;;7.78;2.42;;;;;;;11.29;62.28;94767.03;5151997;27;20027;-67
2024/04/01 04:11:16;;;;;;;15.85;2.10;;;;;;;11.08;61.46;94769.69;5133426;27;20055;-67
2024/04/01 04:13:42;;;;;;;8.38;2.10;;;;;;;10.97;61.77;94782.78;5116238;27;20050;-67
2024/04/01 04:16:08;;;;;;;8.68;1.80;;;;;;;11.30;63.10;94771.28;5133786;27;20111;-67
2024/04/01 04:18:33;;;;;;;10.68;1.77;;;;;;;11.26;63.00;94774.28;5133469;27;20031;-67
2024/04/01 04:20:59;;;;;;;11.85;3.80;;;;;;;11.17;61.56;94781.94;5116373;27;20504;-67
2024/04/01 04:23:24;;;;;;;11.80;3.78;;;;;;;11.18;61.01;94786.16;5099225;27;20042;-67
2024/04/01 04:25:50;;;;;;;10.70;3.03;;;;;;;11.29;59.73;94772.25;5133604;27;20023;-67
2024/04/01 04:28:15;;;;;;;10.98;2.58;;;;;;;11.44;59.49;94780.50;5136868;27;20067;-67
2024/04/01 04:30:41;;;;;;;9.10;2.55;;;;;;;11.60;61.39;94786.00;5155738;27;20031;-67
2024/04/01 04:33:07;;;;;;;10.70;2.10;;;;;;;11.45;61.50;94792.56;5119733;27;20039;-67
2024/04/01 04:35:32;;;;;;;10.73;2.67;;;;;;;11.57;61.98;94796.69;5119885;27;20109;-69
2024/04/01 04:37:58;;;;;;;11.70;2.40;;;;;;;11.44;61.78;94801.31;5155319;27;20411;-67
2024/04/01 04:40:24;;;;;;;14.30;2.95;;;;;;;11.51;61.17;94801.63;5102994;27;20054;-67
2024/04/01 04:42:50;;;;;;;10.35;2.55;;;;;;;11.27;61.85;94792.34;5136900;27;20500;-67
2024/04/01 04:45:16;;;;;;;10.05;2.33;;;;;;;11.45;62.33;94786.50;5137023;27;20062;-67
2024/04/01 04:47:42;;;;;;;9.55;2.97;;;;;;;11.45;61.88;94787.34;5136860;27;20477;-67
2024/04/01 04:50:07;;;;;;;12.88;2.45;;;;;;;11.36;62.42;94788.13;5155406;27;20057;-67
2024/04/01 04:52:33;;;;;;;10.45;2.30;;;;;;;11.40;61.49;94782.53;5136511;27;20019;-67
2024/04/01 04:54:58;;;;;;;7.43;1.80;;;;;;;11.57;61.00;94788.88;5136758;27;20026;-67
2024/04/01 04:57:24;;;;;;;9.20;2.28;;;;;;;11.55;62.09;94785.59;5136624;27;20031;-67
2024/04/01 04:59:49;;;;;;;7.47;2.65;;;;;;;11.66;60.88;94802.88;5119249;27;20022;-67
2024/04/01 05:02:15;;;;;;;11.70;2.85;;;;;;;12.15;58.33;94816.00;5155834;27;20031;-67
2024/04/01 05:04:40;;;;;;;14.45;3.28;;;;;;;12.65;55.15;94802.78;5136375;27;20480;-67
2024/04/01 05:07:06;;;;;;;15.23;2.80;;;;;;;13.05;53.86;94775.66;5119842;27;20031;-67
2024/04/01 05:09:32;;;;;;;14.60;2.45;;;;;;;13.45;52.74;94790.19;5115847;27;20084;-68
2024/04/01 05:11:57;;;;;;;8.50;2.58;;;;;;;13.90;53.19;94794.59;5116014;27;20039;-67
2024/04/01 05:14:23;;;;;;;25.23;6.10;;;;;;;14.26;52.13;94796.28;5127360;27;20022;-67
2024/04/01 05:16:51;;;;;;;17.88;2.80;;;;;;;15.03;53.15;94801.75;5155277;27;20049;-67
2024/04/01 05:19:19;;;;;;;18.70;3.80;;;;;;;15.27;48.59;94774.09;5154599;27;20029;-68
2024/04/01 05:21:45;;;;;;;12.55;3.17;;;;;;;15.93;48.16;94794.31;5119047;27;20038;-67
2024/04/01 05:24:10;;;;;;;13.20;2.35;;;;;;;16.18;49.50;94792.56;5136359;27;20533;-67
2024/04/01 05:26:36;;;;;;;9.20;2.28;;;;;;;16.17;49.31;94793.53;5154888;27;20034;-67
2024/04/01 05:29:01;;;;;;;13.73;2.55;;;;;;;16.52;49.53;94802.13;5135755;27;20522;-68
2024/04/01 05:31:26;;;;;;;13.57;2.33;;;;;;;16.81;48.89;94796.38;5118902;27;20490;-67
2024/04/01 05:33:52;;;;;;;18.30;3.28;;;;;;;16.66;49.08;94797.97;5154262;27;20523;-67
2024/04/01 05:36:23;;;;;;;12.55;2.70;;;;;;;16.71;48.94;94787.81;5136087;27;20027;-67
2024/04/01 05:38:49;;;;;;;15.80;2.55;;;;;;;16.45;48.22;94783.56;5153908;27;20123;-67
2024/04/01 05:41:14;;;;;;;11.13;2.55;;;;;;;16.41;49.24;94758.69;5135957;27;20510;-67
2024/04/01 05:43:40;;;;;;;13.75;2.40;;;;;;;16.22;50.27;94785.22;5135753;27;20026;-67
2024/04/01 05:46:05;;;;;;;13.68;2.50;;;;;;;16.56;49.72;94786.84;5154268;27;20038;-67
2024/04/01 05:48:31;;;;;;;9.18;2.40;;;;;;;16.66;49.65;94787.50;5101381;27;20083;-67
2024/04/01 05:50:56;;;;;;;14.18;2.75;;;;;;;16.28;46.68;94788.00;5135369;27;20030;-67
2024/04/01 05:53:22;;;;;;;13.43;2.85;;;;;;;16.44;48.19;94783.75;5135533;27;20015;-67
2024/04/01 05:55:47;;;;;;;17.88;4.32;;;;;;;16.45;47.69;94777.53;5153880;27;20348;-67
2024/04/01 05:58:13;;;;;;;16.23;3.67;;;;;;;16.30;48.14;94790.47;5135419;27;20485;-67
2024/04/01 06:00:39;;;;;;;15.10;3.42;;;;;;;16.61;49.04;94798.50;5135481;27;20465;-67
2024/04/01 06:03:05;;;;;;;19.00;4.03;;;;;;;16.86;48.79;94788.84;5153863;27;20034;-67
2024/04/01 06:05:31;;;;;;;19.08;3.88;;;;;;;17.19;43.52;94786.16;5153703;27;20069;-67
2024/04/01 06:07:56;;;;;;;22.08;3.78;;;;;;;16.86;43.86;94799.31;5135420;27;20034;-67
2024/04/01 06:10:22;;;;;;;22.17;4.15;;;;;;;17.31;44.85;94791.84;5117958;27;20076;-67
2024/04/01 06:12:47;;;;;;;23.50;3.97;;;;;;;17.40;43.73;94791.66;5118057;27;20106;-67
2024/04/01 06:15:13;;;;;;;26.92;5.00;;;;;;;17.40;43.55;94803.97;5135166;27;20127;-68
2024/04/01 06:17:39;;;;;;;21.13;3.25;;;;;;;17.13;43.48;94805.19;5153514;27;20110;-67
2024/04/01 06:20:06;;;;;;;18.75;3.65;;;;;;;17.29;43.72;94799.88;5135082;27;20122;-67
2024/04/01 06:22:31;;;;;;;20.50;3.30;;;;;;;17.54;43.04;94812.94;5117758;27;20081;-67
2024/04/01 06:24:57;;;;;;;19.13;3.85;;;;;;;17.83;42.53;94815.00;5100956;27;20412;-67
2024/04/01 06:27:22;;;;;;;21.35;4.25;;;;;;;17.49;42.23;94817.88;5153199;27;20034;-68
2024/04/01 06:29:48;;;;;;;26.90;3.85;;;;;;;17.47;41.90;94817.22;5117671;27;20023;-67
2024/04/01 06:32:13;;;;;;;21.15;4.38;;;;;;;17.18;40.74;94805.50;5153615;27;20043;-67
2024/04/01 06:34:38;;;;;;;17.20;2.90;;;;;;;17.31;40.22;94799.72;5134813;27;20022;-67
2024/04/01 06:37:04;;;;;;;12.77;3.17;;;;;;;17.50;40.01;94801.16;5117494;27;20065;-67
2024/04/01 06:39:29;;;;;;;13.60;2.97;;;;;;;17.42;39.42;94794.94;5117512;27;20504;-68
2024/04/01 06:41:55;;;;;;;14.82;3.20;;;;;;;17.76;38.41;94783.31;5116812;27;20708;-68
2024/04/01 06:44:21;;;;;;;14.40;2.90;;;;;;;17.69;38.57;94811.25;5144474;27;20056;-71
2024/04/01 06:46:50;;;;;;;12.70;2.65;;;;;;;17.97;38.77;94800.28;5111508;27;20081;-69
2024/04/01 06:49:15;;;;;;;19.60;3.08;;;;;;;17.60;38.63;94793.88;5112515;27;20095;-69
2024/04/01 06:51:40;;;;;;;14.38;2.72;;;;;;;17.65;39.19;94799.44;5113135;27;20035;-70
2024/04/01 06:54:06;;;;;;;15.68;3.40;;;;;;;17.79;39.07;94796.13;5117170;27;20023;-70
2024/04/01 06:56:34;;;;;;;23.50;3.38;;;;;;;17.78;38.84;94806.78;5092402;27;20059;-69
2024/04/01 06:59:00;;;;;;;22.92;3.45;;;;;;;18.04;39.06;94803.88;5105584;27;20067;-70
2024/04/01 07:01:25;;;;;;;14.45;3.58;;;;;;;18.15;38.65;94795.59;5100037;27;20027;-67
2024/04/01 07:03:51;;;;;;;17.67;2.70;;;;;;;18.15;39.23;94800.03;5132716;27;20019;-67
2024/04/01 07:06:17;;;;;;;12.55;2.95;;;;;;;18.50;38.02;94764.47;5144039;27;20483;-67
2024/04/01 07:08:42;;;;;;;19.50;3.03;;;;;;;18.27;37.76;94791.56;5112070;27;20067;-68
2024/04/01 07:11:08;;;;;;;15.48;2.80;;;;;;;18.49;36.70;94807.53;5151977;27;20027;-69
2024/04/01 07:13:33;;;;;;;18.42;3.42;;;;;;;18.59;36.41;94818.63;5116827;27;20023;-68
2024/04/01 07:15:59;;;;;;;12.90;2.50;;;;;;;18.80;35.85;94809.28;5133497;27;20046;-69
2024/04/01 07:18:25;;;;;;;17.60;3.40;;;;;;;18.71;37.04;94809.31;5151205;27;20046;-68
2024/04/01 07:20:50;;;;;;;14.98;3.20;;;;;;;19.16;36.29;94810.25;5116892;27;20562;-68
2024/04/01 07:23:15;;;;;;;17.75;3.05;;;;;;;18.62;36.39;94810.41;5127431;27;20035;-67
2024/04/01 07:25:41;;;;;;;21.58;3.05;;;;;;;18.51;36.75;94810.81;5127621;27;20038;-66
2024/04/01 07:28:07;;;;;;;17.13;3.03;;;;;;;18.42;36.64;94822.38;5115377;27;20110;-67
2024/04/01 07:30:32;;;;;;;16.35;3.05;;;;;;;18.50;36.71;94817.06;5113894;27;20048;-67
2024/04/01 07:32:58;;;;;;;17.80;2.90;;;;;;;18.88;36.62;94806.59;5113723;27;20145;-67
2024/04/01 07:35:23;;;;;;;24.25;3.30;;;;;;;18.94;36.97;94808.50;5146385;27;20030;-67
2024/04/01 10:17:03;;;;;;;20.40;3.83;;;;;;;23.82;28.95;94654.06;5069936;28;20067;-74
2024/04/01 10:19:43;;;;;;;24.25;4.32;;;;;;;24.09;28.71;94652.88;5064875;28;20486;-78
2024/04/01 10:22:44;;;;;;;15.05;3.25;;;;;;;23.82;28.95;94643.47;5071734;28;20433;-77
2024/04/01 10:25:31;;;;;;;17.80;3.75;;;;;;;24.03;28.54;94647.63;5070441;28;20417;-76
2024/04/01 10:28:34;;;;;;;28.60;4.70;;;;;;;24.36;29.27;94638.63;5057462;28;20029;-77
2024/04/01 10:31:23;;;;;;;30.63;4.70;;;;;;;24.37;27.52;94625.13;5054735;28;20075;-77
2024/04/01 10:34:36;;;;;;;28.27;4.53;;;;;;;24.57;27.25;94629.47;5061020;28;20063;-79
2024/04/01 10:37:39;;;;;;;30.73;5.65;;;;;;;24.60;26.75;94627.22;5032508;28;20127;-79
2024/04/01 10:40:26;;;;;;;30.50;5.40;;;;;;;24.67;27.39;94627.16;5064756;28;20024;-76
2024/04/01 10:43:10;;;;;;;38.00;6.05;;;;;;;24.69;26.24;94609.16;5064569;28;20179;-76
2024/04/01 10:46:09;;;;;;;35.05;5.88;;;;;;;25.00;22.54;94602.91;5066153;28;20036;-75
2024/04/01 10:49:00;;;;;;;29.15;6.18;;;;;;;25.12;24.23;94584.38;5040906;28;20486;-77
2024/04/01 10:51:31;;;;;;;37.47;7.75;;;;;;;25.36;21.26;94611.94;5065451;28;20035;-79
2024/04/01 10:53:58;;;;;;;51.17;8.95;;;;;;;25.52;18.59;94610.47;5071025;28;20147;-82
2024/04/01 10:56:45;;;;;;;55.08;9.07;;;;;;;25.69;17.71;94597.41;5064699;28;20060;-78
2024/04/01 10:59:46;;;;;;;55.63;9.20;;;;;;;25.94;17.56;94586.63;5044550;28;20473;-76
2024/04/01 11:02:42;;;;;;;52.83;9.02;;;;;;;26.06;18.04;94596.25;5031574;28;20049;-74
2024/04/01 11:05:32;;;;;;;42.65;8.20;;;;;;;26.00;17.41;94586.50;5068838;28;20024;-76
2024/04/01 11:08:23;;;;;;;48.58;8.02;;;;;;;26.03;18.02;94579.94;5071034;28;20032;-76
2024/04/01 11:11:16;;;;;;;49.22;8.10;;;;;;;26.15;17.06;94572.75;5070820;28;20489;-76
2024/04/01 11:13:41;;;;;;;45.85;7.40;;;;;;;26.32;16.86;94575.56;5069976;28;20468;-77
2024/04/01 11:16:07;;;;;;;52.97;9.57;;;;;;;26.44;16.81;94571.06;5061599;28;20058;-77
2024/04/01 11:18:32;;;;;;;52.65;8.73;;;;;;;26.64;16.94;94570.75;5036142;28;20627;-76
2024/04/01 11:21:04;;;;;;;49.17;9.13;;;;;;;26.77;17.87;94563.53;5069210;28;20040;-78
2024/04/01 11:23:45;;;;;;;45.10;8.85;;;;;;;26.87;16.40;94558.44;5069716;28;20036;-81
2024/04/01 11:26:48;;;;;;;39.50;8.35;;;;;;;27.13;15.85;94570.41;5047775;28;20036;-80
2024/04/01 11:29:36;;;;;;;36.17;8.10;;;;;;;26.90;16.81;94558.78;5069356;28;20032;-78
2024/04/01 11:32:06;;;;;;;41.08;8.45;;;;;;;27.07;16.37;94556.19;5048878;28;20029;-76
2024/04/01 11:34:58;;;;;;;38.72;8.10;;;;;;;27.04;16.94;94537.19;5037146;28;20025;-78
2024/04/01 11:38:00;;;;;;;52.30;8.80;;;;;;;26.93;17.00;94549.50;5062900;28;20028;-76
2024/04/01 11:40:28;;;;;;;46.33;8.85;;;;;;;27.11;16.24;94537.88;5042186;28;20043;-77
2024/04/01 11:42:55;;;;;;;56.05;9.52;;;;;;;27.10;16.23;94529.06;5072422;28;20490;-78
2024/04/01 11:45:21;;;;;;;43.75;8.63;;;;;;;26.84;17.41;94533.06;5072953;28;20037;-76
2024/04/01 11:47:47;;;;;;;49.90;8.90;;;;;;;26.91;16.29;94524.94;5072774;28;20028;-74
2024/04/01 11:50:14;;;;;;;51.80;9.98;;;;;;;27.02;15.54;94526.75;5053621;28;20037;-77
2024/04/01 11:52:39;;;;;;;47.90;9.02;;;;;;;26.91;16.56;94484.97;5037345;28;20029;-75
2024/04/01 11:55:12;;;;;;;45.08;8.25;;;;;;;27.07;17.54;94520.72;5036113;28;20052;-77
2024/04/01 11:57:37;;;;;;;51.60;8.55;;;;;;;26.82;16.78;94518.34;5052024;28;20414;-74
2024/04/01 12:00:04;;;;;;;40.45;7.78;;;;;;;27.02;17.10;94520.63;5019578;28;20037;-75
2024/04/01 12:02:30;;;;;;;48.10;8.63;;;;;;;26.86;17.05;94519.53;5072076;28;20170;-75
2024/04/01 12:05:03;;;;;;;40.42;7.32;;;;;;;26.92;17.22;94515.91;5055894;28;20036;-76
2024/04/01 12:07:28;;;;;;;53.00;7.82;;;;;;;27.05;16.55;94513.00;5061411;28;20032;-75
2024/04/01 12:09:54;;;;;;;41.20;7.55;;;;;;;26.99;17.54;94495.25;5039105;28;20034;-75
2024/04/01 12:12:20;;;;;;;33.28;6.75;;;;;;;27.01;17.46;94506.50;5055042;28;20025;-75
2024/04/01 12:14:46;;;;;;;47.90;8.02;;;;;;;27.08;17.08;94507.19;5038741;28;20437;-75
2024/04/01 12:17:11;;;;;;;38.78;7.88;;;;;;;27.01;18.48;94495.03;5039435;28;20037;-76
2024/04/01 12:19:37;;;;;;;46.85;7.80;;;;;;;27.10;16.86;94494.41;5072213;28;20490;-76
2024/04/01 12:22:03;;;;;;;47.00;8.40;;;;;;;27.22;18.23;94480.25;5072572;28;20043;-76
2024/04/01 12:24:28;;;;;;;43.65;8.13;;;;;;;27.05;16.12;94449.03;5071615;28;20043;-76
2024/04/01 12:26:54;;;;;;;45.40;8.13;;;;;;;27.01;16.94;94461.19;5046890;28;20046;-76
2024/04/01 12:29:21;;;;;;;46.28;7.85;;;;;;;27.02;16.84;94470.00;5053975;28;20082;-73
2024/04/01 12:31:47;;;;;;;38.15;7.68;;;;;;;27.09;16.63;94468.00;5035317;28;20033;-73
2024/04/01 12:34:13;;;;;;;44.30;7.57;;;;;;;27.10;16.61;94466.94;5061180;28;20019;-74
2024/04/01 12:36:39;;;;;;;37.88;7.32;;;;;;;27.21;16.25;94463.44;5047995;28;20502;-74
2024/04/01 12:39:04;;;;;;;45.30;8.20;;;;;;;27.23;15.95;94450.69;5050154;28;20075;-73
2024/04/01 12:41:30;;;;;;;45.95;7.97;;;;;;;27.26;16.26;94444.88;5056102;28;20419;-74
2024/04/01 12:43:56;;;;;;;40.88;7.50;;;;;;;27.50;15.75;94461.59;5077790;28;20023;-74
2024/04/01 12:46:22;;;;;;;38.42;6.60;;;;;;;27.44;15.83;94440.38;5070148;28;20040;-74
2024/04/01 12:48:48;;;;;;;42.90;8.27;;;;;;;27.43;16.18;94439.56;5035928;28;20017;-73
2024/04/01 12:51:13;;;;;;;42.40;8.32;;;;;;;27.54;16.69;94432.56;5055478;28;20383;-73
2024/04/01 12:53:57;;;;;;;42.20;7.63;;;;;;;27.52;17.23;94434.66;5038572;28;20513;-74
2024/04/01 12:56:40;;;;;;;44.30;8.75;;;;;;;27.45;17.27;94424.16;5072671;28;20036;-74
2024/04/01 12:59:20;;;;;;;43.53;8.40;;;;;;;27.49;16.06;94406.59;5072186;28;20033;-75
2024/04/01 13:01:49;;;;;;;42.45;7.90;;;;;;;27.51;16.25;94433.03;5071063;28;20509;-75
2024/04/01 13:04:17;;;;;;;37.13;7.82;;;;;;;27.53;15.45;94422.97;5054199;28;20036;-76
2024/04/01 13:07:13;;;;;;;46.38;7.50;;;;;;;27.47;15.69;94406.06;5071194;28;20029;-76
2024/04/01 13:09:42;;;;;;;33.08;7.40;;;;;;;27.42;16.09;94392.63;5071123;28;20028;-75
2024/04/01 13:12:36;;;;;;;46.40;8.05;;;;;;;27.54;16.17;94392.56;5034613;28;20366;-74
2024/04/01 13:15:18;;;;;;;46.80;9.13;;;;;;;27.68;15.55;94387.69;5056424;28;20525;-75
2024/04/01 13:17:57;;;;;;;40.67;7.22;;;;;;;27.74;16.31;94387.53;5055582;28;20048;-75
2024/04/01 13:20:32;;;;;;;52.60;9.88;;;;;;;27.74;14.62;94386.72;5071979;28;20032;-75
2024/04/01 13:23:21;;;;;;;47.83;8.73;;;;;;;27.78;15.77;94390.53;5018070;28;20120;-74
2024/04/01 13:25:57;;;;;;;46.88;8.57;;;;;;;27.61;15.46;94383.34;5045909;28;20155;-74
2024/04/01 13:28:47;;;;;;;50.65;7.88;;;;;;;27.79;15.42;94368.13;5041805;28;20074;-75
2024/04/01 13:31:32;;;;;;;;;;;;;;;27.94;15.86;94380.91;5053320;28;20028;-75
2024/04/01 13:34:19;;;;;;;38.92;8.10;;;;;;;27.85;15.90;94377.84;5063221;28;19916;-75
2024/04/01 13:36:56;;;;;;;40.83;7.30;;;;;;;27.93;15.97;94369.41;5060704;28;20068;-75
2024/04/01 13:39:57;;;;;;;51.30;8.40;;;;;;;27.80;16.24;94362.59;5052198;28;20036;-74
2024/04/01 13:42:47;;;;;;;42.08;7.32;;;;;;;28.01;16.02;94363.66;5046839;28;20051;-75
2024/04/01 13:45:16;;;;;;;40.97;7.05;;;;;;;27.80;14.79;94367.94;5063933;28;20056;-75
2024/04/01 13:48:00;;;;;;;42.70;7.35;;;;;;;27.85;15.58;94364.50;5070321;28;20103;-75
2024/04/01 13:50:37;;;;;;;52.25;7.95;;;;;;;27.77;15.66;94360.34;5054093;28;20043;-75
2024/04/01 13:53:05;;;;;;;39.13;7.45;;;;;;;27.71;15.06;94361.34;5070717;28;20466;-75
2024/04/01 13:56:09;;;;;;;45.55;7.90;;;;;;;27.56;16.13;94348.59;5072237;28;20036;-74
2024/04/01 13:58:47;;;;;;;37.65;7.10;;;;;;;27.42;15.83;94352.63;5072233;28;20525;-79
2024/04/01 14:01:21;;;;;;;39.50;7.50;;;;;;;27.63;16.08;94345.75;5064829;28;20087;-77
2024/04/01 14:04:04;;;;;;;40.60;7.32;;;;;;;27.47;15.99;94342.06;5070703;28;20583;-78
2024/04/01 14:07:03;;;;;;;38.75;7.32;;;;;;;27.12;15.51;94343.06;5039386;28;20052;-78
2024/04/01 14:09:34;;;;;;;45.97;8.50;;;;;;;27.18;15.18;94357.31;5055221;28;20085;-77
2024/04/01 14:12:13;;;;;;;37.67;7.35;;;;;;;27.01;15.44;94337.78;5065649;28;20035;-75
2024/04/01 14:14:59;;;;;;;40.97;7.68;;;;;;;27.01;16.17;94325.28;5060660;28;20029;-72
2024/04/01 14:18:10;;;;;;;40.40;7.13;;;;;;;26.95;15.01;94304.94;5058650;28;20028;-78